Time;durP1;ratioP1;P1;durP2;ratioP2;P2;SDS_P1;SDS_P2;PMS_P1;PMS_P2;Temp;Humidity;BMP_temperature;BMP_pressure;BME280_temperature;BME280_humidity;BME280_pressure;Samples;Min_cycle;Max_cycle;Signal;HPM_P1;HPM_P2
2022/09/01 00:01:53;;;;;;;1.90;1.80;;;16.40;1.00;;;;;;6235803;28;20299;-55
2022/09/01 00:04:57;;;;;;;2.00;2.00;;;16.40;1.00;;;;;;6248524;28;20257;-55
2022/09/01 00:08:02;;;;;;;2.23;2.03;;;16.40;1.00;;;;;;6245828;28;20245;-57
2022/09/01 00:11:05;;;;;;;2.37;2.27;;;16.40;1.00;;;;;;6239192;28;20245;-55
2022/09/01 00:14:11;;;;;;;1.70;1.70;;;16.40;1.00;;;;;;6242790;28;20326;-55
2022/09/01 00:17:33;;;;;;;2.47;2.27;;;16.40;1.00;;;;;;6244160;28;20235;-56
2022/09/01 00:20:36;;;;;;;1.70;1.70;;;16.30;1.00;;;;;;6239189;28;21848;-55
2022/09/01 00:23:43;;;;;;;1.67;1.57;;;16.30;1.00;;;;;;6254987;28;20265;-55
2022/09/01 00:26:47;;;;;;;2.10;2.10;;;16.30;1.00;;;;;;6251728;28;20313;-56
2022/09/01 00:29:50;;;;;;;1.93;1.93;;;16.30;1.00;;;;;;6238509;28;20248;-54
2022/09/01 00:32:53;;;;;;;2.07;2.03;;;16.30;1.00;;;;;;6244782;28;20754;-55
2022/09/01 00:35:57;;;;;;;2.20;2.10;;;16.30;1.00;;;;;;6239789;28;20813;-54
2022/09/01 00:39:02;;;;;;;2.00;2.00;;;16.30;1.00;;;;;;6250735;28;20562;-55
2022/09/01 00:42:05;;;;;;;2.17;2.17;;;16.30;1.00;;;;;;6242903;28;20234;-54
2022/09/01 00:45:20;;;;;;;2.00;2.00;;;16.20;1.00;;;;;;6246159;28;20956;-55
2022/09/01 00:48:24;;;;;;;1.83;1.83;;;16.30;1.00;;;;;;6249364;28;20231;-56
2022/09/01 00:51:28;;;;;;;2.13;2.03;;;16.20;1.00;;;;;;6245565;28;20384;-56
2022/09/01 00:54:40;;;;;;;1.70;1.70;;;16.20;1.00;;;;;;6257786;28;20251;-54
2022/09/01 00:57:43;;;;;;;2.00;1.90;;;16.20;1.00;;;;;;6243414;28;20472;-56
2022/09/01 01:00:49;;;;;;;2.03;2.03;;;16.20;1.00;;;;;;6231303;28;20330;-54
2022/09/01 01:03:52;;;;;;;2.53;2.00;;;16.20;1.00;;;;;;6240994;28;20284;-56
2022/09/01 01:07:07;;;;;;;2.10;2.00;;;16.10;1.00;;;;;;6248381;28;20233;-56
2022/09/01 01:10:13;;;;;;;1.60;1.60;;;16.10;1.00;;;;;;6255697;28;20329;-56
2022/09/01 01:13:17;;;;;;;2.00;2.00;;;16.10;1.00;;;;;;6255065;28;20230;-56
2022/09/01 01:16:20;;;;;;;1.87;1.87;;;16.00;1.00;;;;;;6245196;28;20405;-54
2022/09/01 01:23:12;;;;;;;1.90;1.70;;;16.00;1.00;;;;;;6250884;28;20533;-56
2022/09/01 01:26:16;;;;;;;1.83;1.73;;;16.00;1.00;;;;;;6250910;28;20289;-55
2022/09/01 01:29:20;;;;;;;2.10;2.10;;;16.00;1.00;;;;;;6244894;28;20729;-57
2022/09/01 01:32:24;;;;;;;2.17;2.07;;;16.00;1.00;;;;;;6241637;28;20316;-56
2022/09/01 01:35:28;;;;;;;1.70;1.70;;;16.00;1.00;;;;;;6244582;28;20328;-56
2022/09/01 01:38:31;;;;;;;2.00;2.00;;;15.90;1.00;;;;;;6240942;28;20242;-55
2022/09/01 01:41:39;;;;;;;1.97;1.97;;;15.90;1.00;;;;;;6244956;28;20230;-57
2022/09/01 01:44:43;;;;;;;1.90;1.90;;;15.90;1.00;;;;;;6244890;28;20249;-55
2022/09/01 01:47:52;;;;;;;1.97;1.87;;;15.90;1.00;;;;;;6241902;28;20243;-56
2022/09/01 01:50:56;;;;;;;1.90;1.80;;;15.80;1.00;;;;;;6242779;28;20248;-56
2022/09/01 01:54:04;;;;;;;1.97;1.87;;;15.80;1.00;;;;;;6247805;28;20283;-55
2022/09/01 01:57:08;;;;;;;1.90;1.80;;;15.80;1.00;;;;;;6252438;28;20233;-56
2022/09/01 02:00:18;;;;;;;1.90;1.90;;;15.80;1.00;;;;;;6243253;28;20727;-55
2022/09/01 02:03:35;;;;;;;1.70;1.70;;;15.70;1.00;;;;;;6246340;28;20234;-55
2022/09/01 02:06:40;;;;;;;1.80;1.70;;;15.60;1.00;;;;;;6244937;28;20280;-56
2022/09/01 02:09:46;;;;;;;1.97;1.87;;;15.60;1.00;;;;;;6254259;28;20234;-56
2022/09/01 02:12:51;;;;;;;2.67;1.97;;;15.60;1.00;;;;;;6241444;28;20751;-56
2022/09/01 02:15:56;;;;;;;1.73;1.73;;;15.60;1.00;;;;;;6244981;28;20311;-55
2022/09/01 02:19:01;;;;;;;1.80;1.80;;;15.70;1.00;;;;;;6253002;28;20383;-56
2022/09/01 02:22:04;;;;;;;2.20;2.10;;;15.60;1.00;;;;;;6247452;28;20603;-54
2022/09/01 02:25:08;;;;;;;2.20;2.10;;;15.50;1.00;;;;;;6243573;28;20746;-55
2022/09/01 02:28:20;;;;;;;1.87;1.87;;;15.50;1.00;;;;;;6253195;28;20229;-55
2022/09/01 02:31:27;;;;;;;1.67;1.67;;;15.50;1.00;;;;;;6248780;28;20373;-55
2022/09/01 02:34:30;;;;;;;2.00;1.90;;;15.50;1.00;;;;;;6247685;28;20405;-57
2022/09/01 02:37:33;;;;;;;1.67;1.67;;;15.50;1.00;;;;;;6244072;28;20697;-56
2022/09/01 02:40:39;;;;;;;2.00;2.00;;;15.50;1.00;;;;;;6238388;28;20284;-55
2022/09/01 02:43:44;;;;;;;2.00;1.90;;;15.50;1.00;;;;;;6236838;28;20245;-56
2022/09/01 02:46:50;;;;;;;2.37;2.17;;;15.40;1.00;;;;;;6242428;28;20501;-56
2022/09/01 02:49:53;;;;;;;2.07;1.97;;;15.30;1.00;;;;;;6245923;28;20333;-55
2022/09/01 02:52:56;;;;;;;2.10;2.00;;;15.20;1.00;;;;;;6249542;28;20317;-56
2022/09/01 02:56:10;;;;;;;2.03;1.93;;;15.20;1.00;;;;;;6246359;28;20469;-57
2022/09/01 02:59:15;;;;;;;2.40;2.17;;;15.10;1.00;;;;;;6252641;28;20271;-55
2022/09/01 03:02:18;;;;;;;2.07;1.90;;;15.00;1.00;;;;;;6252291;28;20395;-56
2022/09/01 03:05:24;;;;;;;2.30;2.20;;;14.90;1.00;;;;;;6251877;28;20313;-55
2022/09/01 03:08:28;;;;;;;2.23;2.13;;;14.90;1.00;;;;;;6247174;28;20233;-56
2022/09/01 03:11:35;;;;;;;2.43;2.40;;;14.80;1.00;;;;;;6241185;28;20246;-56
2022/09/01 03:14:40;;;;;;;2.63;2.53;;;14.80;1.00;;;;;;6237870;28;20241;-56
2022/09/01 03:17:42;;;;;;;2.60;2.40;;;14.70;1.00;;;;;;6234949;28;20317;-56
2022/09/01 03:20:49;;;;;;;2.77;2.67;;;14.60;1.00;;;;;;6236946;28;20239;-56
2022/09/01 03:23:53;;;;;;;2.70;2.60;;;14.60;1.00;;;;;;6240889;28;20625;-54
2022/09/01 03:26:56;;;;;;;2.50;2.40;;;14.50;1.00;;;;;;6246490;28;20384;-56
2022/09/01 03:30:00;;;;;;;2.77;2.67;;;14.50;1.00;;;;;;6243543;28;20806;-56
2022/09/01 03:33:03;;;;;;;2.50;2.40;;;14.40;1.00;;;;;;6229199;28;20227;-54
2022/09/01 03:36:07;;;;;;;2.87;2.70;;;14.30;1.00;;;;;;6238776;28;20341;-56
2022/09/01 03:39:17;;;;;;;2.90;2.80;;;14.20;1.00;;;;;;6245304;28;20222;-56
2022/09/01 03:42:26;;;;;;;2.43;2.37;;;14.20;1.00;;;;;;6247089;28;20720;-55
2022/09/01 03:45:34;;;;;;;2.63;2.53;;;14.10;1.00;;;;;;6259503;28;20265;-55
2022/09/01 03:48:38;;;;;;;2.50;2.40;;;14.10;1.00;;;;;;6248344;28;20662;-55
2022/09/01 03:51:43;;;;;;;2.63;2.50;;;14.00;1.00;;;;;;6251280;28;20317;-55
2022/09/01 03:54:46;;;;;;;3.20;3.03;;;14.00;1.00;;;;;;6250349;28;20769;-56
2022/09/01 03:57:49;;;;;;;4.00;3.73;;;13.90;1.00;;;;;;6250744;28;20238;-54
2022/09/01 04:00:57;;;;;;;6.33;5.83;;;14.00;1.00;;;;;;6250811;28;20333;-55
2022/09/01 04:04:00;;;;;;;10.67;8.70;;;13.90;1.00;;;;;;6251854;28;20230;-55
2022/09/01 04:07:03;;;;;;;10.57;9.50;;;13.90;1.00;;;;;;6247692;28;20238;-55
2022/09/01 04:10:10;;;;;;;12.03;9.87;;;13.90;1.00;;;;;;6260893;28;20830;-55
2022/09/01 04:13:13;;;;;;;11.60;10.00;;;13.90;1.00;;;;;;6253413;28;20238;-55
2022/09/01 04:19:49;;;;;;;7.50;6.77;;;13.70;1.00;;;;;;6255597;28;20234;-56
2022/09/01 04:22:52;;;;;;;6.50;5.93;;;13.70;1.00;;;;;;6251883;28;20284;-55
2022/09/01 04:25:58;;;;;;;5.37;5.00;;;13.60;1.00;;;;;;6250420;28;20257;-54
2022/09/01 04:29:01;;;;;;;4.50;4.10;;;13.60;1.00;;;;;;6251394;28;20693;-57
2022/09/01 04:32:10;;;;;;;4.30;4.20;;;13.60;1.00;;;;;;6260092;28;20238;-56
2022/09/01 04:35:15;;;;;;;4.30;3.40;;;13.50;1.00;;;;;;6247007;28;20809;-55
2022/09/01 04:38:20;;;;;;;3.33;3.20;;;13.50;1.00;;;;;;6238311;28;20238;-54
2022/09/01 04:41:25;;;;;;;3.27;3.17;;;13.50;1.00;;;;;;6258404;28;20234;-56
2022/09/01 04:44:29;;;;;;;3.13;3.00;;;13.50;1.00;;;;;;6260698;28;20256;-56
2022/09/01 04:47:34;;;;;;;3.40;3.20;;;13.50;1.00;;;;;;6254921;28;20234;-55
2022/09/01 04:50:40;;;;;;;3.67;3.53;;;13.50;1.00;;;;;;6266112;28;20253;-56
2022/09/01 04:53:47;;;;;;;3.10;2.87;;;13.50;1.00;;;;;;6259078;28;20623;-54
2022/09/01 04:56:52;;;;;;;3.53;3.43;;;13.60;1.00;;;;;;6250880;28;20257;-56
2022/09/01 04:59:57;;;;;;;3.30;3.20;;;13.60;1.00;;;;;;6265270;28;20470;-56
2022/09/01 05:03:03;;;;;;;3.37;3.03;;;13.60;1.00;;;;;;6253562;28;20616;-56
2022/09/01 05:06:13;;;;;;;4.63;2.80;;;13.50;1.00;;;;;;6224480;28;20531;-56
2022/09/01 05:09:18;;;;;;;3.07;2.97;;;13.60;1.00;;;;;;6244115;28;20218;-54
2022/09/01 05:12:25;;;;;;;2.70;2.60;;;13.70;1.00;;;;;;6244550;28;20230;-56
2022/09/01 05:15:29;;;;;;;3.30;3.10;;;13.70;1.00;;;;;;6263223;28;20241;-55
2022/09/01 05:18:34;;;;;;;2.70;2.60;;;13.60;1.00;;;;;;6252764;28;20436;-56
2022/09/01 05:21:39;;;;;;;3.40;3.30;;;13.60;1.00;;;;;;6249998;28;20330;-55
2022/09/01 05:24:41;;;;;;;3.30;3.10;;;13.70;1.00;;;;;;6242094;28;20330;-55
2022/09/01 05:27:48;;;;;;;3.20;2.90;;;13.70;1.00;;;;;;6245138;28;20290;-56
2022/09/01 05:30:53;;;;;;;2.73;2.73;;;13.70;1.00;;;;;;6242598;28;20337;-56
2022/09/01 05:33:57;;;;;;;3.20;3.10;;;13.70;1.00;;;;;;6213617;28;20234;-55
2022/09/01 05:37:00;;;;;;;3.53;3.10;;;13.80;1.00;;;;;;6231376;28;20380;-53
2022/09/01 05:40:05;;;;;;;3.33;3.10;;;13.80;1.00;;;;;;6233397;28;20622;-57
2022/09/01 05:43:11;;;;;;;2.97;2.87;;;13.80;1.00;;;;;;6235728;28;20716;-56
2022/09/01 05:46:16;;;;;;;3.00;2.90;;;13.90;1.00;;;;;;6231734;28;20232;-56
2022/09/01 05:49:20;;;;;;;3.57;3.37;;;13.90;1.00;;;;;;6238894;28;20233;-55
2022/09/01 05:52:25;;;;;;;2.80;2.70;;;14.00;1.00;;;;;;6225606;28;20774;-55
2022/09/01 05:55:34;;;;;;;2.93;2.63;;;14.10;1.00;;;;;;6244148;28;20241;-54
2022/09/01 05:58:38;;;;;;;3.00;2.90;;;14.20;1.00;;;;;;6239186;28;20333;-56
2022/09/01 06:02:01;;;;;;;3.00;2.90;;;14.30;1.00;;;;;;6253164;28;20644;-56
2022/09/01 06:05:07;;;;;;;3.07;2.73;;;14.40;1.00;;;;;;6249115;28;20233;-60
2022/09/01 06:08:12;;;;;;;3.00;2.87;;;14.60;1.00;;;;;;6251174;28;20234;-55
2022/09/01 06:11:19;;;;;;;2.27;2.17;;;14.70;1.00;;;;;;6247839;28;20269;-53
2022/09/01 06:14:22;;;;;;;2.80;2.70;;;14.90;1.00;;;;;;6256419;28;20574;-54
2022/09/01 06:17:27;;;;;;;2.57;2.40;;;15.10;1.00;;;;;;6255273;28;20257;-54
2022/09/01 06:20:32;;;;;;;2.47;2.37;;;15.60;1.00;;;;;;6255199;28;20281;-61
2022/09/01 06:23:35;;;;;;;4.70;2.30;;;16.20;1.00;;;;;;6253487;28;20725;-54
2022/09/01 06:26:39;;;;;;;2.53;2.47;;;16.40;1.00;;;;;;6257629;28;20309;-55
2022/09/01 06:29:41;;;;;;;2.70;2.47;;;16.50;1.00;;;;;;6237558;28;21116;-54
2022/09/01 06:32:45;;;;;;;2.20;2.10;;;17.00;1.00;;;;;;6248285;28;20633;-55
2022/09/01 06:35:51;;;;;;;2.03;1.97;;;17.30;1.00;;;;;;6256472;28;20242;-56
2022/09/01 06:38:54;;;;;;;2.30;2.13;;;17.50;1.00;;;;;;6249616;28;20535;-54
2022/09/01 06:41:57;;;;;;;2.40;2.30;;;17.60;1.00;;;;;;6248115;28;20591;-54
2022/09/01 06:45:00;;;;;;;2.20;2.00;;;17.50;1.00;;;;;;6250561;28;20316;-55
2022/09/01 06:48:04;;;;;;;4.50;2.30;;;17.40;1.00;;;;;;6256928;28;20391;-54
2022/09/01 06:51:11;;;;;;;2.63;2.43;;;17.30;1.00;;;;;;6254541;28;20317;-55
2022/09/01 06:54:21;;;;;;;2.30;2.20;;;17.10;1.00;;;;;;6244577;28;20240;-54
2022/09/01 06:57:26;;;;;;;3.50;2.00;;;17.10;1.00;;;;;;6257045;28;20523;-56
2022/09/01 07:00:50;;;;;;;2.27;2.17;;;17.20;1.00;;;;;;6244808;28;20234;-55
2022/09/01 07:03:56;;;;;;;2.17;2.07;;;17.20;1.00;;;;;;6238268;28;20249;-55
2022/09/01 07:07:08;;;;;;;2.00;1.90;;;17.10;1.00;;;;;;6243794;28;20624;-54
2022/09/01 07:10:32;;;;;;;2.00;2.00;;;17.10;1.00;;;;;;6239743;28;20242;-55
2022/09/01 07:13:36;;;;;;;2.00;1.90;;;17.10;1.00;;;;;;6242166;28;20758;-55
2022/09/01 07:16:40;;;;;;;2.33;2.23;;;17.10;1.00;;;;;;6237546;28;20811;-54
2022/09/01 07:19:54;;;;;;;2.50;2.33;;;17.20;1.00;;;;;;6236141;28;20239;-55
2022/09/01 07:22:59;;;;;;;2.10;2.00;;;17.20;1.00;;;;;;6247171;28;20816;-56
2022/09/01 07:26:16;;;;;;;2.43;2.10;;;17.10;1.00;;;;;;6244980;28;20392;-56
2022/09/01 07:29:28;;;;;;;4.07;2.17;;;17.10;1.00;;;;;;6243749;28;20457;-55
2022/09/01 07:32:33;;;;;;;2.00;2.00;;;17.30;1.00;;;;;;6243866;28;20246;-55
2022/09/01 07:35:46;;;;;;;1.80;1.80;;;17.30;1.00;;;;;;6256693;28;20230;-55
2022/09/01 07:39:12;;;;;;;1.77;1.73;;;17.60;1.00;;;;;;6243028;28;20451;-54
2022/09/01 07:42:37;;;;;;;1.80;1.80;;;18.30;1.00;;;;;;6250078;28;20668;-60
2022/09/01 07:46:05;;;;;;;1.87;1.87;;;18.50;1.00;;;;;;6254463;28;20520;-54
2022/09/01 07:49:28;;;;;;;1.67;1.60;;;18.50;1.00;;;;;;6252399;28;20237;-56
2022/09/01 07:52:41;;;;;;;1.77;1.77;;;18.20;1.00;;;;;;6256727;28;20313;-56
2022/09/01 07:55:48;;;;;;;2.00;1.90;;;18.10;1.00;;;;;;6252280;28;20238;-60
2022/09/01 07:58:52;;;;;;;2.10;2.00;;;18.10;1.00;;;;;;6260418;28;20742;-55
2022/09/01 08:01:56;;;;;;;1.90;1.80;;;18.10;1.00;;;;;;6249658;28;20473;-56
2022/09/01 08:05:00;;;;;;;1.77;1.70;;;18.20;1.00;;;;;;6257128;28;20261;-55
2022/09/01 08:08:04;;;;;;;1.67;1.60;;;18.30;1.00;;;;;;6253086;28;20242;-55
2022/09/01 08:11:28;;;;;;;1.80;1.70;;;18.30;1.00;;;;;;6259139;28;20246;-55
2022/09/01 08:14:52;;;;;;;1.70;1.70;;;18.30;1.00;;;;;;6259780;28;20249;-55
2022/09/01 08:18:15;;;;;;;2.57;1.63;;;18.40;1.00;;;;;;6259237;28;20238;-54
2022/09/01 08:21:22;;;;;;;1.80;1.80;;;18.40;1.00;;;;;;6256874;28;20242;-56
2022/09/01 08:24:25;;;;;;;1.63;1.63;;;18.50;1.00;;;;;;6257471;28;20721;-55
2022/09/01 08:27:29;;;;;;;1.70;1.70;;;18.50;1.00;;;;;;6253996;28;20325;-55
2022/09/01 08:30:32;;;;;;;2.43;1.77;;;18.70;1.00;;;;;;6246925;28;20501;-54
2022/09/01 08:33:35;;;;;;;1.63;1.63;;;18.70;1.00;;;;;;6256393;28;20909;-55
2022/09/01 08:36:38;;;;;;;1.60;1.60;;;18.70;1.00;;;;;;6260102;28;20939;-54
2022/09/01 08:39:41;;;;;;;1.73;1.63;;;18.80;1.00;;;;;;6251699;28;20531;-55
2022/09/01 08:42:56;;;;;;;1.70;1.60;;;18.90;1.00;;;;;;6269276;28;20729;-55
2022/09/01 08:46:08;;;;;;;1.70;1.70;;;18.90;1.00;;;;;;6256885;28;20321;-55
2022/09/01 08:49:16;;;;;;;1.70;1.70;;;19.00;1.00;;;;;;6252002;28;20226;-54
2022/09/01 08:52:34;;;;;;;1.90;1.80;;;19.00;1.00;;;;;;6250713;28;20662;-55
2022/09/01 08:55:41;;;;;;;1.53;1.53;;;19.10;1.00;;;;;;6254850;28;20729;-55
2022/09/01 08:58:46;;;;;;;1.90;1.80;;;19.20;1.00;;;;;;6259117;28;20547;-54
2022/09/01 09:01:54;;;;;;;1.90;1.90;;;19.20;1.00;;;;;;6237987;28;20246;-56
2022/09/01 09:05:03;;;;;;;1.80;1.70;;;19.30;1.00;;;;;;6250978;28;20245;-53
2022/09/01 09:08:40;;;;;;;1.50;1.50;;;19.40;1.00;;;;;;6254795;28;20241;-56
2022/09/01 09:12:09;;;;;;;1.60;1.60;;;19.50;1.00;;;;;;6244130;28;20269;-55
2022/09/01 09:15:21;;;;;;;1.40;1.40;;;19.60;1.00;;;;;;6254865;28;20431;-57
2022/09/01 09:18:33;;;;;;;1.60;1.60;;;19.70;1.00;;;;;;6251737;28;20239;-56
2022/09/01 09:21:43;;;;;;;1.97;1.87;;;19.80;1.00;;;;;;6245288;28;20329;-55
2022/09/01 09:24:50;;;;;;;1.63;1.60;;;19.90;1.00;;;;;;6249456;28;20246;-55
2022/09/01 09:27:54;;;;;;;3.13;1.80;;;20.10;1.00;;;;;;6251794;28;20245;-55
2022/09/01 09:31:28;;;;;;;2.20;1.40;;;20.10;1.00;;;;;;6255591;28;20317;-54
2022/09/01 09:34:34;;;;;;;1.70;1.60;;;20.20;1.00;;;;;;6254003;28;20238;-55
2022/09/01 09:37:37;;;;;;;1.63;1.63;;;20.30;1.00;;;;;;6258487;28;20716;-55
2022/09/01 09:40:57;;;;;;;1.80;1.80;;;20.50;1.00;;;;;;6248205;28;20494;-55
2022/09/01 09:44:30;;;;;;;1.50;1.50;;;20.60;1.00;;;;;;6252180;28;20246;-55
2022/09/01 09:47:40;;;;;;;1.40;1.40;;;20.70;1.00;;;;;;6256039;28;20324;-54
2022/09/01 09:50:47;;;;;;;1.63;1.53;;;20.80;1.00;;;;;;6253035;28;20734;-56
2022/09/01 09:53:54;;;;;;;1.43;1.43;;;20.90;1.00;;;;;;6253436;28;20238;-55
2022/09/01 09:57:12;;;;;;;1.60;1.50;;;21.00;1.00;;;;;;6253894;28;20264;-55
2022/09/01 10:00:21;;;;;;;3.10;1.57;;;21.00;1.00;;;;;;6255267;28;20237;-55
2022/09/01 10:03:38;;;;;;;2.47;1.60;;;20.90;1.00;;;;;;6254937;28;20248;-55
2022/09/01 10:06:44;;;;;;;1.40;1.40;;;21.00;1.00;;;;;;6254516;28;20235;-58
2022/09/01 10:09:49;;;;;;;1.60;1.60;;;21.30;1.00;;;;;;6245179;28;20448;-56
2022/09/01 10:12:53;;;;;;;1.50;1.40;;;21.30;1.00;;;;;;6248189;28;20241;-56
2022/09/01 10:15:58;;;;;;;1.50;1.40;;;21.40;1.00;;;;;;6249240;28;20739;-55
2022/09/01 10:19:03;;;;;;;1.50;1.50;;;21.50;1.00;;;;;;6251018;28;20294;-58
2022/09/01 10:22:14;;;;;;;1.20;1.20;;;21.70;1.00;;;;;;6255122;28;20764;-55
2022/09/01 10:25:20;;;;;;;1.70;1.60;;;21.90;1.00;;;;;;6241325;28;20236;-54
2022/09/01 10:28:24;;;;;;;2.50;1.50;;;21.80;1.00;;;;;;6252289;28;20237;-56
2022/09/01 10:31:29;;;;;;;1.20;1.20;;;21.90;1.00;;;;;;6248979;28;20246;-57
2022/09/01 10:34:38;;;;;;;1.67;1.63;;;21.80;1.00;;;;;;6254112;28;20236;-57
2022/09/01 10:37:47;;;;;;;1.90;1.30;;;21.90;1.00;;;;;;6241712;28;20341;-54
2022/09/01 10:41:05;;;;;;;2.10;1.30;;;22.10;1.00;;;;;;6248197;28;20745;-55
2022/09/01 10:44:11;;;;;;;1.50;1.50;;;22.20;1.00;;;;;;6253135;28;20770;-55
2022/09/01 10:47:28;;;;;;;1.23;1.23;;;22.10;1.00;;;;;;6242881;28;20246;-56
2022/09/01 10:50:33;;;;;;;1.37;1.27;;;22.20;1.00;;;;;;6254364;28;20808;-56
2022/09/01 10:53:39;;;;;;;1.50;1.47;;;22.20;1.00;;;;;;6248202;28;20359;-54
2022/09/01 10:56:46;;;;;;;1.17;1.17;;;22.00;1.00;;;;;;6256716;28;20226;-56
2022/09/01 10:59:56;;;;;;;1.20;1.20;;;22.10;1.00;;;;;;6261632;28;20238;-55
2022/09/01 11:03:41;;;;;;;1.20;1.20;;;22.20;1.00;;;;;;6253240;28;20238;-55
2022/09/01 11:07:00;;;;;;;2.20;1.33;;;22.40;1.00;;;;;;6255409;28;20316;-56
2022/09/01 11:10:46;;;;;;;2.17;1.40;;;22.30;1.00;;;;;;6256520;28;20444;-56
2022/09/01 11:13:53;;;;;;;1.33;1.33;;;22.20;1.00;;;;;;6247120;28;20888;-53
2022/09/01 11:17:15;;;;;;;3.23;1.60;;;22.10;1.00;;;;;;6260517;28;20234;-55
2022/09/01 11:20:25;;;;;;;1.23;1.23;;;22.20;1.00;;;;;;6256080;28;20253;-56
2022/09/01 11:23:31;;;;;;;1.47;1.40;;;22.50;1.00;;;;;;6249723;28;20240;-54
2022/09/01 11:26:48;;;;;;;3.00;1.57;;;22.40;1.00;;;;;;6257707;28;20256;-55
2022/09/01 11:29:54;;;;;;;1.60;1.43;;;22.50;1.00;;;;;;6259834;28;20479;-56
2022/09/01 11:33:02;;;;;;;1.60;1.60;;;22.50;1.00;;;;;;6258004;28;20244;-55
2022/09/01 11:36:12;;;;;;;1.40;1.40;;;22.40;1.00;;;;;;6256063;28;20234;-56
2022/09/01 11:39:29;;;;;;;1.20;1.20;;;22.40;1.00;;;;;;6253771;28;20229;-55
2022/09/01 11:42:39;;;;;;;1.57;1.57;;;22.30;1.00;;;;;;6249065;28;20234;-56
2022/09/01 11:45:59;;;;;;;1.33;1.33;;;22.20;1.00;;;;;;6257057;28;20230;-56
2022/09/01 11:49:07;;;;;;;1.50;1.50;;;22.40;1.00;;;;;;6249244;28;20259;-54
2022/09/01 11:52:16;;;;;;;1.43;1.43;;;22.50;1.00;;;;;;6249903;28;20611;-55
2022/09/01 11:55:30;;;;;;;1.90;1.90;;;22.30;1.00;;;;;;6250030;28;20229;-56
2022/09/01 11:58:38;;;;;;;2.30;1.23;;;22.00;1.00;;;;;;6256840;28;20615;-55
2022/09/01 12:01:41;;;;;;;2.00;1.50;;;21.90;1.00;;;;;;6260267;28;20714;-54
2022/09/01 12:04:44;;;;;;;3.93;1.50;;;21.90;1.00;;;;;;6259450;28;20425;-54
2022/09/01 12:07:47;;;;;;;1.30;1.30;;;22.00;1.00;;;;;;6255461;28;20311;-54
2022/09/01 12:11:03;;;;;;;3.33;1.57;;;22.00;1.00;;;;;;6258386;28;21068;-56
2022/09/01 12:14:08;;;;;;;1.43;1.43;;;22.00;1.00;;;;;;6251756;28;20222;-55
2022/09/01 12:17:20;;;;;;;1.30;1.30;;;22.00;1.00;;;;;;6256150;28;20237;-55
2022/09/01 12:20:27;;;;;;;1.60;1.50;;;22.00;1.00;;;;;;6243646;28;20319;-55
2022/09/01 12:23:34;;;;;;;1.80;1.70;;;22.10;1.00;;;;;;6259296;28;20392;-55
2022/09/01 12:26:39;;;;;;;1.30;1.30;;;22.10;1.00;;;;;;6253721;28;20261;-56
2022/09/01 12:29:42;;;;;;;1.40;1.40;;;22.10;1.00;;;;;;6244151;28;20536;-56
2022/09/01 12:32:46;;;;;;;1.50;1.50;;;21.90;1.00;;;;;;6241501;28;20368;-55
2022/09/01 12:35:48;;;;;;;2.33;1.50;;;21.80;1.00;;;;;;6259109;28;20321;-55
2022/09/01 12:39:20;;;;;;;1.50;1.30;;;21.50;1.00;;;;;;6248353;28;20245;-56
2022/09/01 12:42:30;;;;;;;1.47;1.47;;;21.40;1.00;;;;;;6246031;28;20319;-57
2022/09/01 12:45:45;;;;;;;1.53;1.53;;;21.40;1.00;;;;;;6254537;28;20234;-56
2022/09/01 12:48:48;;;;;;;1.70;1.60;;;21.30;1.00;;;;;;6246525;28;20238;-55
2022/09/01 12:52:10;;;;;;;1.40;1.40;;;21.40;1.00;;;;;;6258171;28;20249;-54
2022/09/01 12:55:18;;;;;;;1.40;1.40;;;21.20;1.00;;;;;;6251790;28;20230;-56
2022/09/01 12:58:47;;;;;;;2.87;1.50;;;21.10;1.00;;;;;;6255434;28;20726;-56
2022/09/01 13:01:50;;;;;;;1.57;1.40;;;21.10;1.00;;;;;;6243166;28;20285;-55
2022/09/01 13:04:52;;;;;;;1.50;1.50;;;21.10;1.00;;;;;;6249894;28;20353;-61
2022/09/01 13:07:57;;;;;;;1.70;1.57;;;21.40;1.00;;;;;;6253742;28;20257;-55
2022/09/01 13:11:04;;;;;;;1.37;1.30;;;21.50;1.00;;;;;;6257932;28;20329;-55
2022/09/01 13:14:10;;;;;;;1.57;1.53;;;21.70;1.00;;;;;;6246036;28;20238;-55
2022/09/01 13:17:14;;;;;;;4.10;1.43;;;22.10;1.00;;;;;;6248024;28;20238;-55
2022/09/01 13:20:17;;;;;;;2.40;1.50;;;22.40;1.00;;;;;;6255809;28;20579;-55
2022/09/01 13:23:21;;;;;;;1.53;1.50;;;22.50;1.00;;;;;;6254204;28;20237;-58
2022/09/01 13:26:25;;;;;;;1.20;1.20;;;22.50;1.00;;;;;;6251002;28;20639;-55
2022/09/01 13:29:30;;;;;;;1.67;1.57;;;22.60;1.00;;;;;;6259097;28;20875;-55
2022/09/01 13:32:33;;;;;;;1.47;1.37;;;22.40;1.00;;;;;;6254455;28;20244;-57
2022/09/01 13:35:36;;;;;;;1.53;1.50;;;22.30;1.00;;;;;;6258945;28;20234;-61
2022/09/01 13:38:39;;;;;;;1.70;1.60;;;22.20;1.00;;;;;;6254111;28;20707;-54
2022/09/01 13:41:42;;;;;;;1.40;1.40;;;22.10;1.00;;;;;;6251669;28;20599;-55
2022/09/01 13:44:47;;;;;;;1.63;1.50;;;21.90;1.00;;;;;;6256634;28;20381;-55
2022/09/01 13:47:53;;;;;;;1.20;1.20;;;21.70;1.00;;;;;;6258127;28;20268;-55
2022/09/01 13:51:25;;;;;;;2.77;1.70;;;21.70;1.00;;;;;;6252698;28;20349;-60
2022/09/01 13:54:28;;;;;;;1.50;1.43;;;21.70;1.00;;;;;;6256371;28;20236;-55
2022/09/01 13:57:32;;;;;;;1.40;1.40;;;21.70;1.00;;;;;;6256806;28;20264;-56
2022/09/01 14:00:41;;;;;;;2.47;1.60;;;21.70;1.00;;;;;;6252990;28;20369;-55
2022/09/01 14:03:45;;;;;;;1.50;1.50;;;21.80;1.00;;;;;;6255398;28;20321;-56
2022/09/01 14:06:59;;;;;;;3.57;1.50;;;21.80;1.00;;;;;;6250553;28;20476;-55
2022/09/01 14:10:03;;;;;;;1.60;1.60;;;21.90;1.00;;;;;;6244846;28;20786;-54
2022/09/01 14:13:06;;;;;;;3.60;1.30;;;22.00;1.00;;;;;;6250643;28;20249;-56
2022/09/01 14:16:13;;;;;;;1.57;1.57;;;22.10;1.00;;;;;;6255990;28;20806;-54
2022/09/01 14:19:16;;;;;;;1.30;1.20;;;22.20;1.00;;;;;;6249475;28;20248;-55
2022/09/01 14:22:19;;;;;;;1.73;1.63;;;22.30;1.00;;;;;;6248243;28;20234;-57
2022/09/01 14:25:22;;;;;;;2.43;1.53;;;22.30;1.00;;;;;;6257723;28;20237;-55
2022/09/01 14:28:25;;;;;;;1.40;1.40;;;22.30;1.00;;;;;;6257337;28;20248;-56
2022/09/01 14:31:30;;;;;;;1.40;1.40;;;22.40;1.00;;;;;;6250744;28;20606;-55
2022/09/01 14:34:34;;;;;;;1.77;1.30;;;22.30;1.00;;;;;;6255177;28;20305;-54
2022/09/01 14:37:37;;;;;;;3.80;1.53;;;22.20;1.00;;;;;;6249928;28;20226;-56
2022/09/01 14:40:42;;;;;;;1.23;1.20;;;22.20;1.00;;;;;;6245873;28;20235;-56
2022/09/01 14:43:46;;;;;;;1.40;1.40;;;22.20;1.00;;;;;;6252696;28;20262;-56
2022/09/01 14:46:53;;;;;;;4.03;1.70;;;22.30;1.00;;;;;;6240553;28;20717;-54
2022/09/01 14:49:56;;;;;;;1.73;1.63;;;22.50;1.00;;;;;;6251686;28;20239;-54
2022/09/01 14:53:01;;;;;;;2.37;1.93;;;22.80;1.00;;;;;;6252249;28;20230;-55
2022/09/01 14:56:04;;;;;;;1.90;1.67;;;22.90;1.00;;;;;;6255747;28;20436;-55
2022/09/01 14:59:07;;;;;;;1.40;1.40;;;22.90;1.00;;;;;;6251043;28;20317;-55
2022/09/01 15:02:12;;;;;;;1.67;1.57;;;22.80;1.00;;;;;;6253706;28;20768;-55
2022/09/01 15:05:15;;;;;;;1.27;1.20;;;22.60;1.00;;;;;;6251437;28;20300;-54
2022/09/01 15:08:18;;;;;;;2.80;1.60;;;22.50;1.00;;;;;;6254155;28;20317;-53
2022/09/01 15:11:21;;;;;;;1.23;1.23;;;22.50;1.00;;;;;;6255790;28;20527;-55
2022/09/01 15:14:24;;;;;;;2.37;1.33;;;22.40;1.00;;;;;;6254441;28;20325;-55
2022/09/01 15:17:30;;;;;;;1.33;1.33;;;22.40;1.00;;;;;;6254287;28;20731;-56
2022/09/01 15:20:45;;;;;;;1.70;1.70;;;22.30;1.00;;;;;;6246231;28;20796;-56
2022/09/01 15:23:49;;;;;;;1.30;1.30;;;22.30;1.00;;;;;;6249299;28;20264;-56
2022/09/01 15:26:53;;;;;;;1.50;1.50;;;22.20;1.00;;;;;;6243623;28;20310;-55
2022/09/01 15:29:56;;;;;;;1.67;1.57;;;22.30;1.00;;;;;;6253505;28;20333;-54
2022/09/01 15:33:01;;;;;;;1.40;1.40;;;22.40;1.00;;;;;;6249466;28;20321;-54
2022/09/01 15:36:04;;;;;;;1.23;1.23;;;22.40;1.00;;;;;;6245572;28;20238;-56
2022/09/01 15:39:10;;;;;;;1.33;1.33;;;22.50;1.00;;;;;;6247152;28;20751;-56
2022/09/01 15:42:14;;;;;;;1.50;1.40;;;22.50;1.00;;;;;;6250879;28;20729;-55
2022/09/01 15:45:21;;;;;;;1.30;1.30;;;22.60;1.00;;;;;;6258312;28;20269;-55
2022/09/01 15:48:26;;;;;;;1.47;1.43;;;22.70;1.00;;;;;;6254847;28;20235;-54
2022/09/01 15:51:33;;;;;;;1.53;1.30;;;22.60;1.00;;;;;;6252172;28;20470;-55
2022/09/01 15:54:38;;;;;;;2.93;1.30;;;22.40;1.00;;;;;;6245400;28;20591;-54
2022/09/01 15:57:47;;;;;;;1.30;1.30;;;22.30;1.00;;;;;;6243115;28;20226;-54
2022/09/01 16:00:50;;;;;;;4.43;1.37;;;22.20;1.00;;;;;;6247937;28;20244;-55
2022/09/01 16:03:55;;;;;;;1.70;1.70;;;22.10;1.00;;;;;;6249298;28;20774;-56
2022/09/01 16:06:58;;;;;;;1.43;1.40;;;22.00;1.00;;;;;;6250331;28;20226;-56
2022/09/01 16:10:01;;;;;;;1.70;1.70;;;21.90;1.00;;;;;;6255282;28;20321;-54
2022/09/01 16:13:04;;;;;;;1.40;1.40;;;21.80;1.00;;;;;;6253830;28;20265;-55
2022/09/01 16:16:18;;;;;;;1.50;1.50;;;21.70;1.00;;;;;;6255856;28;20737;-54
2022/09/01 16:19:34;;;;;;;1.30;1.30;;;21.70;1.00;;;;;;6254425;28;20235;-56
2022/09/01 16:22:42;;;;;;;1.20;1.20;;;21.70;1.00;;;;;;6254271;28;20303;-56
2022/09/01 16:25:46;;;;;;;1.57;1.57;;;21.70;1.00;;;;;;6260264;28;20311;-63
2022/09/01 16:28:52;;;;;;;1.40;1.40;;;21.60;1.00;;;;;;6254640;28;20245;-55
2022/09/01 16:31:56;;;;;;;1.93;1.83;;;21.60;1.00;;;;;;6255129;28;20238;-55
2022/09/01 16:35:02;;;;;;;2.07;1.60;;;21.50;1.00;;;;;;6256511;28;20231;-54
2022/09/01 16:38:15;;;;;;;1.50;1.50;;;21.50;1.00;;;;;;6256032;28;20283;-55